createdAt,value
2023-06-18T00:01:08.212Z,40.79
2023-06-18T00:03:34.738Z,41.03
2023-06-18T00:06:02.035Z,41.06
2023-06-18T00:08:28.551Z,40.97
2023-06-18T00:10:55.039Z,41.30
2023-06-18T00:13:21.614Z,41.38
2023-06-18T00:15:48.132Z,41.21
2023-06-18T00:18:15.177Z,41.51
2023-06-18T00:20:41.668Z,41.78
2023-06-18T00:23:08.133Z,41.81
2023-06-18T00:25:34.647Z,41.79
2023-06-18T00:28:01.389Z,41.95
2023-06-18T00:30:27.964Z,42.07
2023-06-18T00:32:54.509Z,42.20
2023-06-18T00:35:21.430Z,42.32
2023-06-18T00:37:48.513Z,42.53
2023-06-18T00:40:16.127Z,42.53
2023-06-18T00:42:42.857Z,42.57
2023-06-18T00:45:13.376Z,42.66
2023-06-18T00:47:42.724Z,42.85
2023-06-18T00:50:09.892Z,43.03
2023-06-18T00:52:37.421Z,43.09
2023-06-18T00:55:04.110Z,43.15
2023-06-18T00:57:32.169Z,43.16
2023-06-18T00:59:58.812Z,43.17
2023-06-18T01:02:28.288Z,43.26
2023-06-18T01:04:57.424Z,43.29
2023-06-18T01:07:29.219Z,43.23
2023-06-18T01:09:58.569Z,43.23
2023-06-18T01:12:31.151Z,43.36
2023-06-18T01:14:57.813Z,43.35
2023-06-18T01:17:24.638Z,43.50
2023-06-18T01:20:01.984Z,43.50
2023-06-18T01:22:34.708Z,43.70
2023-06-18T01:25:04.685Z,43.82
2023-06-18T01:27:35.048Z,43.76
2023-06-18T01:30:02.072Z,43.84
2023-06-18T01:32:28.966Z,44.04
2023-06-18T01:34:58.470Z,44.17
2023-06-18T01:37:31.112Z,44.37
2023-06-18T01:39:57.706Z,44.51
2023-06-18T01:42:24.537Z,44.66
2023-06-18T01:44:56.610Z,44.79
2023-06-18T01:47:24.896Z,44.92
2023-06-18T01:49:51.407Z,44.76
2023-06-18T01:52:18.104Z,44.96
2023-06-18T01:54:45.869Z,44.89
2023-06-18T01:57:12.358Z,44.92
2023-06-18T01:59:41.240Z,44.96
2023-06-18T02:02:07.784Z,45.06
2023-06-18T02:04:34.290Z,45.04
2023-06-18T02:07:00.964Z,45.12
2023-06-18T02:09:27.490Z,45.20
2023-06-18T02:11:54.082Z,45.30
2023-06-18T02:14:20.666Z,45.40
2023-06-18T02:16:50.068Z,45.29
2023-06-18T02:19:17.145Z,45.37
2023-06-18T02:21:43.715Z,45.32
2023-06-18T02:24:10.410Z,45.48
2023-06-18T02:26:37.050Z,45.47
2023-06-18T02:29:03.567Z,45.62
2023-06-18T02:31:30.209Z,45.55
2023-06-18T02:33:56.712Z,45.68
2023-06-18T02:36:23.859Z,45.61
2023-06-18T02:38:53.109Z,45.66
2023-06-18T02:41:22.790Z,45.81
2023-06-18T02:43:50.534Z,45.78
2023-06-18T02:46:17.557Z,45.88
2023-06-18T02:48:44.169Z,45.84
2023-06-18T02:51:11.440Z,45.94
2023-06-18T02:53:38.000Z,45.96
2023-06-18T02:56:04.771Z,46.18
2023-06-18T02:58:31.264Z,46.24
2023-06-18T03:01:01.492Z,46.37
2023-06-18T03:03:31.893Z,46.49
2023-06-18T03:05:59.523Z,46.40
2023-06-18T03:08:26.341Z,46.41
2023-06-18T03:10:54.947Z,46.64
2023-06-18T03:13:21.662Z,46.78
2023-06-18T03:15:51.249Z,46.80
2023-06-18T03:18:19.801Z,46.67
2023-06-18T03:20:46.515Z,46.84
2023-06-18T03:23:13.021Z,46.96
2023-06-18T03:25:43.195Z,47.14
2023-06-18T03:28:15.652Z,47.31
2023-06-18T03:30:42.605Z,47.42
2023-06-18T03:33:10.079Z,47.44
2023-06-18T03:35:39.770Z,47.48
2023-06-18T03:38:07.869Z,47.50
2023-06-18T03:40:34.677Z,47.52
2023-06-18T03:43:01.151Z,47.78
2023-06-18T03:45:27.692Z,47.69
2023-06-18T03:47:54.471Z,47.65
2023-06-18T03:50:24.108Z,47.62
2023-06-18T03:52:50.823Z,47.57
2023-06-18T03:55:18.339Z,47.48
2023-06-18T03:57:44.925Z,47.42
2023-06-18T04:00:12.149Z,47.57
2023-06-18T04:02:43.565Z,47.66
2023-06-18T04:05:18.113Z,47.62
2023-06-18T04:07:44.595Z,47.90
2023-06-18T04:10:11.308Z,47.80
2023-06-18T04:12:37.829Z,47.84
2023-06-18T04:15:04.654Z,47.67
2023-06-18T04:17:38.982Z,47.67
2023-06-18T04:20:06.272Z,47.64
2023-06-18T04:22:32.866Z,47.56
2023-06-18T04:24:59.450Z,47.60
2023-06-18T04:27:27.104Z,47.52
2023-06-18T04:29:53.609Z,47.55
2023-06-18T04:32:20.140Z,47.54
2023-06-18T04:34:47.483Z,47.69
2023-06-18T04:37:14.012Z,47.54
2023-06-18T04:39:40.973Z,47.51
2023-06-18T04:42:07.515Z,47.63
2023-06-18T04:44:34.108Z,47.90
2023-06-18T04:47:00.645Z,47.89
2023-06-18T04:49:28.127Z,48.07
2023-06-18T04:51:54.711Z,48.11
2023-06-18T04:54:21.283Z,48.11
2023-06-18T04:56:48.131Z,47.95
2023-06-18T04:59:14.602Z,47.98
2023-06-18T05:01:41.144Z,47.99
2023-06-18T05:04:07.836Z,47.84
2023-06-18T05:06:34.757Z,47.96
2023-06-18T05:09:01.658Z,47.87
2023-06-18T05:11:28.332Z,47.98
2023-06-18T05:13:54.913Z,48.08
2023-06-18T05:16:22.344Z,48.06
2023-06-18T05:18:48.931Z,48.07
2023-06-18T05:21:17.036Z,48.03
2023-06-18T05:23:43.795Z,48.20
2023-06-18T05:26:11.343Z,48.31
2023-06-18T05:28:37.870Z,48.29
2023-06-18T05:31:04.442Z,48.47
2023-06-18T05:33:31.279Z,48.58
2023-06-18T05:35:59.930Z,48.65
2023-06-18T05:38:26.468Z,48.47
2023-06-18T05:40:53.092Z,48.39
2023-06-18T05:43:19.819Z,48.32
2023-06-18T05:45:50.036Z,48.37
2023-06-18T05:48:17.204Z,48.43
2023-06-18T05:50:59.178Z,48.51
2023-06-18T05:53:25.719Z,48.54
2023-06-18T05:55:52.998Z,48.57
2023-06-18T05:58:22.059Z,48.29
2023-06-18T06:00:49.719Z,48.45
2023-06-18T06:03:16.266Z,48.57
2023-06-18T06:05:42.908Z,48.41
2023-06-18T06:08:11.616Z,48.48
2023-06-18T06:10:39.253Z,48.38
2023-06-18T06:13:05.821Z,48.37
2023-06-18T06:15:33.005Z,47.95
2023-06-18T06:17:59.586Z,47.96
2023-06-18T06:20:26.232Z,47.90
2023-06-18T06:22:53.328Z,47.82
2023-06-18T06:25:20.038Z,47.60
2023-06-18T06:27:47.527Z,47.62
2023-06-18T06:30:14.100Z,47.74
2023-06-18T06:32:40.776Z,47.58
2023-06-18T06:35:07.562Z,47.31
2023-06-18T06:37:34.368Z,47.15
2023-06-18T06:40:03.931Z,47.18
2023-06-18T06:42:32.193Z,47.32
2023-06-18T06:45:20.535Z,46.69
2023-06-18T06:48:06.102Z,46.76
2023-06-18T06:51:11.329Z,46.12
2023-06-18T06:53:45.359Z,46.13
2023-06-18T06:56:13.949Z,45.30
2023-06-18T06:58:40.644Z,45.14
2023-06-18T07:01:07.246Z,44.88
2023-06-18T07:03:33.960Z,44.64
2023-06-18T07:06:00.578Z,44.77
2023-06-18T07:08:27.030Z,44.39
2023-06-18T07:10:53.558Z,43.68
2023-06-18T07:13:20.348Z,43.75
2023-06-18T07:15:47.083Z,43.97
2023-06-18T07:18:13.712Z,43.45
2023-06-18T07:20:40.529Z,43.48
2023-06-18T07:23:07.020Z,43.39
2023-06-18T07:25:33.560Z,43.22
2023-06-18T07:28:00.174Z,42.70
2023-06-18T07:30:26.725Z,41.59
2023-06-18T07:32:53.423Z,41.27
2023-06-18T07:35:19.966Z,41.10
2023-06-18T07:37:46.534Z,40.35
2023-06-18T07:40:13.100Z,40.17
2023-06-18T07:42:40.104Z,40.43
2023-06-18T07:45:06.887Z,40.68
2023-06-18T07:47:33.413Z,40.31
2023-06-18T07:50:00.621Z,39.82
2023-06-18T07:52:27.660Z,39.65
2023-06-18T07:54:54.159Z,39.43
2023-06-18T07:57:20.749Z,39.03
2023-06-18T07:59:48.622Z,38.81
2023-06-18T08:02:15.299Z,38.26
2023-06-18T08:04:42.142Z,38.46
2023-06-18T08:07:08.657Z,37.80
2023-06-18T08:09:35.107Z,37.91
2023-06-18T08:12:01.657Z,37.79
2023-06-18T08:14:28.577Z,37.00
2023-06-18T08:16:55.075Z,37.01
2023-06-18T08:19:21.578Z,36.57
2023-06-18T08:21:49.259Z,36.79
2023-06-18T08:24:15.948Z,36.34
2023-06-18T08:26:42.568Z,35.63
2023-06-18T08:29:09.093Z,35.69
2023-06-18T08:31:35.759Z,35.15
2023-06-18T08:34:02.391Z,35.45
2023-06-18T08:36:28.871Z,34.82
2023-06-18T08:38:55.456Z,34.76
2023-06-18T08:41:22.204Z,34.04
2023-06-18T08:43:48.704Z,34.53
2023-06-18T08:46:16.092Z,33.86
2023-06-18T08:48:42.644Z,34.28
2023-06-18T08:51:10.099Z,33.59
2023-06-18T08:53:39.631Z,33.41
2023-06-18T08:56:06.200Z,31.67
2023-06-18T08:58:32.912Z,32.68
2023-06-18T09:01:00.093Z,33.22
2023-06-18T09:03:26.649Z,32.99
2023-06-18T09:05:53.147Z,31.84
2023-06-18T09:08:20.139Z,31.36
2023-06-18T09:10:46.764Z,30.06
2023-06-18T09:13:13.298Z,30.20
2023-06-18T09:15:39.890Z,30.38
2023-06-18T09:18:06.417Z,29.95
2023-06-18T09:20:33.350Z,28.95
2023-06-18T09:22:59.873Z,28.13
2023-06-18T09:25:28.927Z,28.87
2023-06-18T09:27:57.700Z,28.86
2023-06-18T09:30:27.263Z,29.66
2023-06-18T09:32:58.566Z,29.45
2023-06-18T09:35:25.240Z,28.41
2023-06-18T09:37:51.916Z,28.16
2023-06-18T09:40:20.064Z,26.69
2023-06-18T09:42:47.036Z,28.03
2023-06-18T09:45:15.481Z,26.43
2023-06-18T09:47:43.405Z,25.36
2023-06-18T09:50:11.173Z,25.16
2023-06-18T09:52:50.415Z,25.62
2023-06-18T09:55:25.733Z,26.43
2023-06-18T09:57:52.225Z,25.75
2023-06-18T10:00:19.158Z,24.66
2023-06-18T10:02:45.859Z,25.66
2023-06-18T10:05:12.575Z,24.96
2023-06-18T10:07:41.222Z,25.46
2023-06-18T10:10:10.326Z,25.15
2023-06-18T10:12:37.064Z,23.12
2023-06-18T10:15:03.701Z,24.38
2023-06-18T10:17:35.305Z,24.28
2023-06-18T10:20:08.734Z,24.25
2023-06-18T10:22:47.600Z,24.90
2023-06-18T10:25:14.263Z,24.51
2023-06-18T10:27:41.021Z,24.72
2023-06-18T10:30:08.838Z,23.63
2023-06-18T10:32:35.869Z,23.69
2023-06-18T10:35:05.471Z,24.27
2023-06-18T10:37:33.018Z,23.34
2023-06-18T10:39:59.558Z,22.59
2023-06-18T10:42:26.073Z,23.28
2023-06-18T10:44:56.544Z,23.42
2023-06-18T10:47:24.267Z,23.55
2023-06-18T10:50:03.167Z,22.72
2023-06-18T10:52:33.216Z,23.12
2023-06-18T10:55:05.902Z,23.08
2023-06-18T10:57:32.550Z,23.03
2023-06-18T10:59:59.030Z,22.90
2023-06-18T11:02:33.641Z,22.31
2023-06-18T11:05:00.293Z,22.24
2023-06-18T11:07:28.595Z,22.58
2023-06-18T11:09:58.084Z,22.16
2023-06-18T11:12:25.546Z,22.11
2023-06-18T11:15:10.782Z,22.35
2023-06-18T11:17:37.336Z,22.77
2023-06-18T11:20:04.871Z,21.63
2023-06-18T11:22:32.066Z,21.30
2023-06-18T11:24:59.146Z,22.44
2023-06-18T11:27:26.041Z,21.26
2023-06-18T11:29:57.097Z,20.75
2023-06-18T11:32:24.479Z,19.96
2023-06-18T11:34:51.739Z,20.30
2023-06-18T11:37:18.385Z,19.66
2023-06-18T11:39:44.958Z,19.53
2023-06-18T11:42:16.672Z,19.73
2023-06-18T11:44:54.040Z,20.42
2023-06-18T11:47:20.901Z,20.17
2023-06-18T11:49:48.357Z,20.40
2023-06-18T11:52:15.722Z,20.91
2023-06-18T11:54:42.824Z,20.54
2023-06-18T11:57:13.302Z,20.64
2023-06-18T11:59:43.625Z,19.89
2023-06-18T12:02:13.411Z,20.08
2023-06-18T12:04:40.491Z,20.56
2023-06-18T12:07:07.124Z,20.56
2023-06-18T12:09:34.678Z,19.77
2023-06-18T12:12:08.683Z,19.21
2023-06-18T12:14:35.290Z,19.44
2023-06-18T12:17:04.827Z,19.47
2023-06-18T12:19:31.366Z,19.42
2023-06-18T12:21:57.833Z,20.25
2023-06-18T12:24:27.121Z,19.82
2023-06-18T12:26:54.158Z,19.83
2023-06-18T12:29:20.766Z,19.66
2023-06-18T12:32:05.919Z,19.30
2023-06-18T12:34:39.408Z,20.07
2023-06-18T12:37:06.216Z,19.30
2023-06-18T12:39:32.975Z,18.35
2023-06-18T12:41:59.561Z,18.97
2023-06-18T12:44:28.595Z,18.35
2023-06-18T12:46:57.963Z,18.44
2023-06-18T12:49:24.616Z,18.67
2023-06-18T12:51:52.122Z,17.67
2023-06-18T12:54:19.349Z,18.59
2023-06-18T12:56:47.506Z,18.32
2023-06-18T12:59:16.692Z,18.64
2023-06-18T13:01:44.768Z,18.93
2023-06-18T13:04:11.698Z,17.47
2023-06-18T13:06:38.309Z,19.18
2023-06-18T13:09:05.932Z,18.90
2023-06-18T13:11:33.583Z,19.42
2023-06-18T13:14:00.379Z,19.53
2023-06-18T13:16:27.028Z,19.87
2023-06-18T13:18:53.533Z,19.23
2023-06-18T13:21:20.126Z,19.68
2023-06-18T13:23:46.623Z,19.85
2023-06-18T13:26:13.099Z,19.39
2023-06-18T13:28:39.687Z,19.98
2023-06-18T13:31:06.136Z,19.97
2023-06-18T13:33:32.653Z,19.75
2023-06-18T13:35:59.216Z,19.69
2023-06-18T13:38:26.097Z,19.73
2023-06-18T13:40:52.847Z,19.41
2023-06-18T13:43:19.981Z,19.51
2023-06-18T13:45:46.528Z,19.92
2023-06-18T13:48:13.477Z,18.95
2023-06-18T13:50:40.498Z,19.43
2023-06-18T13:53:09.922Z,18.71
2023-06-18T13:55:36.700Z,19.18
2023-06-18T13:58:03.232Z,19.46
2023-06-18T14:00:29.884Z,19.00
2023-06-18T14:02:56.716Z,19.33
2023-06-18T14:05:23.712Z,19.02
2023-06-18T14:07:50.566Z,19.70
2023-06-18T14:10:17.220Z,19.88
2023-06-18T14:12:43.836Z,19.36
2023-06-18T14:15:10.729Z,20.14
2023-06-18T14:17:37.361Z,19.12
2023-06-18T14:20:04.400Z,19.04
2023-06-18T14:22:30.963Z,19.49
2023-06-18T14:24:59.678Z,18.95
2023-06-18T14:27:26.575Z,20.04
2023-06-18T14:29:53.365Z,19.60
2023-06-18T14:32:23.577Z,19.92
2023-06-18T14:34:51.978Z,20.50
2023-06-18T14:37:23.077Z,20.30
2023-06-18T14:39:50.207Z,20.51
2023-06-18T14:42:16.769Z,20.42
2023-06-18T14:44:43.960Z,20.35
2023-06-18T14:47:10.515Z,20.19
2023-06-18T14:49:37.147Z,20.14
2023-06-18T14:52:03.708Z,20.22
2023-06-18T14:54:30.254Z,20.52
2023-06-18T14:56:57.028Z,20.54
2023-06-18T14:59:23.570Z,20.72
2023-06-18T15:01:50.274Z,20.72
2023-06-18T15:04:17.360Z,21.03
2023-06-18T15:06:45.569Z,21.07
2023-06-18T15:09:13.683Z,21.22
2023-06-18T15:11:40.273Z,20.82
2023-06-18T15:14:06.886Z,21.01
2023-06-18T15:16:35.646Z,20.97
2023-06-18T15:19:02.231Z,21.12
2023-06-18T15:21:28.734Z,21.27
2023-06-18T15:23:55.882Z,21.00
2023-06-18T15:26:22.732Z,20.99
2023-06-18T15:28:49.318Z,21.31
2023-06-18T15:31:16.294Z,21.06
2023-06-18T15:33:42.927Z,20.78
2023-06-18T15:36:09.828Z,21.18
2023-06-18T15:38:36.555Z,20.91
2023-06-18T15:41:03.425Z,21.10
2023-06-18T15:43:30.596Z,21.12
2023-06-18T15:45:57.150Z,21.12
2023-06-18T15:48:24.232Z,21.13
2023-06-18T15:50:51.441Z,21.19
2023-06-18T15:53:19.350Z,21.45
2023-06-18T15:55:48.092Z,21.36
2023-06-18T15:58:15.244Z,21.70
2023-06-18T16:00:41.804Z,21.34
2023-06-18T16:03:08.787Z,21.80
2023-06-18T16:05:35.392Z,21.95
2023-06-18T16:08:01.894Z,21.78
2023-06-18T16:10:28.508Z,22.06
2023-06-18T16:12:54.953Z,22.44
2023-06-18T16:15:21.813Z,22.01
2023-06-18T16:17:48.625Z,21.96
2023-06-18T16:20:15.425Z,21.91
2023-06-18T16:22:41.905Z,22.04
2023-06-18T16:25:08.601Z,22.33
2023-06-18T16:27:35.180Z,22.28
2023-06-18T16:30:01.699Z,22.35
2023-06-18T16:32:28.941Z,22.77
2023-06-18T16:34:55.623Z,23.32
2023-06-18T16:37:22.210Z,23.14
2023-06-18T16:39:48.760Z,23.33
2023-06-18T16:42:15.242Z,23.05
2023-06-18T16:44:41.829Z,22.89
2023-06-18T16:47:08.330Z,23.28
2023-06-18T16:49:35.896Z,24.03
2023-06-18T16:52:04.704Z,23.63
2023-06-18T16:54:31.429Z,23.60
2023-06-18T16:56:58.100Z,23.61
2023-06-18T16:59:25.050Z,23.82
2023-06-18T17:01:51.708Z,23.99
2023-06-18T17:04:20.886Z,24.16
2023-06-18T17:06:47.655Z,24.15
2023-06-18T17:09:14.278Z,24.03
2023-06-18T17:11:41.364Z,24.48
2023-06-18T17:14:08.031Z,24.23
2023-06-18T17:16:34.690Z,24.58
2023-06-18T17:19:01.339Z,25.02
2023-06-18T17:21:27.871Z,25.18
2023-06-18T17:23:54.423Z,25.02
2023-06-18T17:26:20.956Z,25.24
2023-06-18T17:28:47.773Z,25.46
2023-06-18T17:31:14.424Z,25.33
2023-06-18T17:33:41.423Z,25.35
2023-06-18T17:36:08.106Z,25.79
2023-06-18T17:38:34.585Z,25.71
2023-06-18T17:41:01.739Z,25.86
2023-06-18T17:43:28.232Z,25.62
2023-06-18T17:46:14.628Z,25.42
2023-06-18T17:48:41.590Z,25.93
2023-06-18T17:51:08.173Z,26.01
2023-06-18T17:53:34.672Z,25.74
2023-06-18T17:56:01.208Z,26.12
2023-06-18T17:58:27.744Z,26.29
2023-06-18T18:00:54.535Z,26.48
2023-06-18T18:03:21.528Z,26.37
2023-06-18T18:05:48.089Z,26.49
2023-06-18T18:08:14.511Z,26.69
2023-06-18T18:10:41.008Z,26.35
2023-06-18T18:13:07.559Z,26.49
2023-06-18T18:15:34.181Z,26.79
2023-06-18T18:18:00.718Z,26.39
2023-06-18T18:20:27.258Z,26.67
2023-06-18T18:22:53.747Z,27.03
2023-06-18T18:25:20.386Z,26.99
2023-06-18T18:27:46.930Z,27.37
2023-06-18T18:30:13.651Z,27.08
2023-06-18T18:32:40.171Z,27.42
2023-06-18T18:35:06.865Z,27.55
2023-06-18T18:37:33.385Z,27.13
2023-06-18T18:39:59.877Z,27.07
2023-06-18T18:42:26.459Z,27.06
2023-06-18T18:44:52.912Z,27.40
2023-06-18T18:47:19.421Z,27.76
2023-06-18T18:49:47.089Z,27.99
2023-06-18T18:52:13.704Z,28.08
2023-06-18T18:54:40.301Z,28.52
2023-06-18T18:57:06.947Z,27.96
2023-06-18T18:59:33.421Z,28.36
2023-06-18T19:02:13.044Z,27.98
2023-06-18T19:04:39.512Z,28.72
2023-06-18T19:07:06.272Z,28.49
2023-06-18T19:09:32.777Z,28.68
2023-06-18T19:12:00.549Z,28.63
2023-06-18T19:14:27.395Z,28.10
2023-06-18T19:16:53.956Z,28.26
2023-06-18T19:19:20.410Z,28.62
2023-06-18T19:21:47.596Z,29.20
2023-06-18T19:24:14.163Z,29.08
2023-06-18T19:26:40.639Z,29.19
2023-06-18T19:29:07.997Z,29.45
2023-06-18T19:31:35.625Z,29.58
2023-06-18T19:34:02.148Z,29.43
2023-06-18T19:36:28.674Z,29.42
2023-06-18T19:38:55.173Z,29.63
2023-06-18T19:41:22.033Z,29.73
2023-06-18T19:43:48.609Z,29.90
2023-06-18T19:46:15.137Z,29.46
2023-06-18T19:48:41.678Z,29.90
2023-06-18T19:51:08.214Z,29.77
2023-06-18T19:53:34.877Z,29.92
2023-06-18T19:56:01.715Z,29.58
2023-06-18T19:58:28.852Z,29.87
2023-06-18T20:00:55.662Z,29.79
2023-06-18T20:03:22.426Z,30.29
2023-06-18T20:05:49.884Z,30.15
2023-06-18T20:08:16.613Z,30.12
2023-06-18T20:10:43.097Z,30.60
2023-06-18T20:13:09.621Z,30.76
2023-06-18T20:15:37.237Z,30.69
2023-06-18T20:18:04.240Z,30.32
2023-06-18T20:20:30.816Z,30.34
2023-06-18T20:22:57.389Z,30.67
2023-06-18T20:25:23.918Z,30.90
2023-06-18T20:27:50.411Z,31.39
2023-06-18T20:30:16.948Z,31.42
2023-06-18T20:32:43.439Z,31.78
2023-06-18T20:35:09.977Z,32.41
2023-06-18T20:37:36.534Z,32.29
2023-06-18T20:40:03.213Z,32.29
2023-06-18T20:42:29.778Z,32.71
2023-06-18T20:44:56.296Z,33.25
2023-06-18T20:47:22.880Z,33.29
2023-06-18T20:49:49.388Z,32.97
2023-06-18T20:52:15.956Z,32.99
2023-06-18T20:54:43.369Z,33.40
2023-06-18T20:57:09.994Z,33.43
2023-06-18T20:59:36.696Z,33.17
2023-06-18T21:02:03.248Z,33.75
2023-06-18T21:04:29.791Z,33.61
2023-06-18T21:06:56.312Z,33.83
2023-06-18T21:09:22.889Z,33.98
2023-06-18T21:11:49.425Z,33.54
2023-06-18T21:14:16.240Z,33.61
2023-06-18T21:16:42.849Z,33.26
2023-06-18T21:19:09.392Z,33.45
2023-06-18T21:21:35.883Z,33.46
2023-06-18T21:24:02.362Z,33.23
2023-06-18T21:26:29.554Z,33.29
2023-06-18T21:28:56.069Z,33.17
2023-06-18T21:31:22.735Z,33.03
2023-06-18T21:33:49.355Z,33.27
2023-06-18T21:36:15.933Z,32.99
2023-06-18T21:38:45.358Z,32.96
2023-06-18T21:41:11.817Z,32.90
2023-06-18T21:43:38.367Z,33.33
2023-06-18T21:46:04.965Z,33.05
2023-06-18T21:48:31.520Z,33.22
2023-06-18T21:51:01.697Z,33.42
2023-06-18T21:53:28.647Z,33.41
2023-06-18T21:55:55.220Z,33.05
2023-06-18T21:58:21.912Z,33.08
2023-06-18T22:00:49.144Z,33.06
2023-06-18T22:03:15.754Z,33.15
2023-06-18T22:05:42.347Z,33.38
2023-06-18T22:08:23.064Z,33.12
2023-06-18T22:10:51.088Z,33.37
2023-06-18T22:13:17.626Z,33.37
2023-06-18T22:15:44.212Z,33.40
2023-06-18T22:18:10.717Z,33.56
2023-06-18T22:20:37.151Z,33.68
2023-06-18T22:23:04.428Z,33.57
2023-06-18T22:25:32.326Z,33.86
2023-06-18T22:27:58.869Z,33.81
2023-06-18T22:30:25.696Z,34.12
2023-06-18T22:32:52.467Z,34.11
2023-06-18T22:35:19.031Z,34.41
2023-06-18T22:37:45.599Z,34.35
2023-06-18T22:40:12.508Z,34.26
2023-06-18T22:42:39.022Z,33.89
2023-06-18T22:45:05.747Z,34.10
2023-06-18T22:47:32.284Z,34.21
2023-06-18T22:49:58.913Z,34.38
2023-06-18T22:52:25.453Z,34.55
2023-06-18T22:54:51.896Z,34.71
2023-06-18T22:57:18.595Z,34.62
2023-06-18T22:59:45.119Z,34.84
2023-06-18T23:02:11.646Z,34.75
2023-06-18T23:04:38.102Z,34.60
2023-06-18T23:07:04.576Z,34.79
2023-06-18T23:09:31.042Z,34.81
2023-06-18T23:11:57.673Z,35.06
2023-06-18T23:14:24.148Z,34.78
2023-06-18T23:16:50.751Z,35.07
2023-06-18T23:19:17.310Z,34.88
2023-06-18T23:21:47.853Z,35.06
2023-06-18T23:24:14.592Z,35.03
2023-06-18T23:26:41.076Z,35.18
2023-06-18T23:29:10.767Z,35.21
2023-06-18T23:31:40.780Z,35.40
2023-06-18T23:34:07.753Z,35.38
2023-06-18T23:36:34.780Z,35.52
2023-06-18T23:39:02.169Z,35.61
2023-06-18T23:41:28.704Z,35.56
2023-06-18T23:43:55.222Z,35.80
2023-06-18T23:46:22.439Z,35.46
2023-06-18T23:48:49.116Z,35.65
2023-06-18T23:51:15.610Z,35.83
2023-06-18T23:53:42.050Z,36.25
2023-06-18T23:56:08.527Z,36.35
2023-06-18T23:58:34.971Z,36.26
